createdAt,value
2018-05-11T00:01:21.063Z,14.00
2018-05-11T00:06:23.515Z,14.00
2018-05-11T00:11:25.968Z,14.00
2018-05-11T00:16:28.445Z,14.00
2018-05-11T00:21:30.937Z,13.90
2018-05-11T00:26:33.401Z,13.90
2018-05-11T00:31:36.623Z,13.80
2018-05-11T00:36:39.961Z,13.80
2018-05-11T00:41:42.409Z,13.80
2018-05-11T00:46:53.050Z,13.80
2018-05-11T00:51:55.498Z,13.80
2018-05-11T00:56:58.718Z,13.80
2018-05-11T01:02:01.955Z,13.80
2018-05-11T01:07:04.449Z,13.80
2018-05-11T01:12:06.900Z,13.80
2018-05-11T01:17:09.349Z,13.80
2018-05-11T01:22:11.802Z,13.80
2018-05-11T01:27:15.033Z,13.80
2018-05-11T01:32:17.487Z,13.70
2018-05-11T01:37:19.954Z,13.80
2018-05-11T01:42:22.410Z,13.80
2018-05-11T01:47:24.873Z,13.80
2018-05-11T01:52:28.097Z,13.80
2018-05-11T01:57:30.544Z,13.70
2018-05-11T02:02:33.089Z,13.70
2018-05-11T02:07:35.558Z,13.70
2018-05-11T02:12:38.788Z,13.60
2018-05-11T02:17:42.012Z,13.50
2018-05-11T02:22:44.448Z,13.50
2018-05-11T02:27:46.910Z,13.50
2018-05-11T02:32:49.370Z,13.50
2018-05-11T02:37:52.600Z,13.40
2018-05-11T02:42:55.056Z,13.30
2018-05-11T02:47:57.508Z,13.30
2018-05-11T02:52:59.971Z,13.30
2018-05-11T02:58:02.431Z,13.20
2018-05-11T03:03:05.657Z,13.20
2018-05-11T03:08:08.889Z,13.10
2018-05-11T03:13:11.362Z,13.10
2018-05-11T03:18:31.127Z,13.00
2018-05-11T03:23:34.286Z,13.00
2018-05-11T03:28:36.838Z,13.00
2018-05-11T03:33:39.337Z,13.00
2018-05-11T03:38:57.717Z,13.00
2018-05-11T03:44:00.939Z,13.00
2018-05-11T03:49:07.498Z,12.90
2018-05-11T03:54:10.029Z,12.90
2018-05-11T03:59:15.015Z,12.90
2018-05-11T04:04:29.413Z,12.90
2018-05-11T04:09:31.849Z,12.90
2018-05-11T04:14:34.301Z,12.80
2018-05-11T04:19:36.769Z,12.80
2018-05-11T04:24:39.273Z,12.90
2018-05-11T04:29:41.717Z,12.90
2018-05-11T04:34:44.185Z,12.80
2018-05-11T04:39:47.405Z,12.90
2018-05-11T04:44:50.638Z,12.80
2018-05-11T04:49:53.083Z,12.80
2018-05-11T04:54:55.549Z,12.90
2018-05-11T04:59:58.005Z,12.80
2018-05-11T05:05:00.455Z,12.80
2018-05-11T05:10:03.000Z,12.80
2018-05-11T05:15:05.445Z,12.80
2018-05-11T05:20:07.979Z,12.80
2018-05-11T05:25:10.543Z,12.80
2018-05-11T05:30:13.753Z,12.80
2018-05-11T05:35:16.998Z,12.80
2018-05-11T05:40:19.452Z,12.80
2018-05-11T05:45:21.921Z,12.80
2018-05-11T05:50:24.478Z,12.80
2018-05-11T05:55:26.964Z,12.80
2018-05-11T06:00:29.475Z,12.90
2018-05-11T06:05:32.104Z,12.90
2018-05-11T06:10:34.559Z,12.90
2018-05-11T06:15:37.102Z,13.00
2018-05-11T06:20:39.566Z,13.00
2018-05-11T06:25:42.030Z,13.00
2018-05-11T06:30:44.473Z,13.10
2018-05-11T06:35:47.710Z,13.10
2018-05-11T06:40:51.063Z,13.20
2018-05-11T06:45:53.542Z,13.10
2018-05-11T06:50:56.092Z,13.20
2018-05-11T06:55:58.656Z,13.30
2018-05-11T07:01:01.084Z,13.30
2018-05-11T07:06:03.544Z,13.40
2018-05-11T07:11:05.999Z,13.40
2018-05-11T07:16:08.504Z,13.40
2018-05-11T07:21:11.080Z,13.40
2018-05-11T07:26:14.296Z,13.60
2018-05-11T07:31:16.842Z,13.60
2018-05-11T07:36:19.295Z,13.80
2018-05-11T07:41:22.596Z,14.40
2018-05-11T07:46:25.880Z,14.30
2018-05-11T07:51:28.348Z,14.60
2018-05-11T07:56:30.795Z,14.80
2018-05-11T08:01:33.244Z,14.90
2018-05-11T08:06:35.689Z,15.10
2018-05-11T08:11:38.147Z,15.10
2018-05-11T08:16:41.373Z,15.20
2018-05-11T08:21:44.592Z,15.20
2018-05-11T08:26:47.220Z,15.20
2018-05-11T08:31:49.504Z,15.30
2018-05-11T08:36:51.949Z,15.30
2018-05-11T08:41:55.179Z,15.30
2018-05-11T08:46:57.752Z,15.30
2018-05-11T08:52:01.110Z,15.40
2018-05-11T08:57:08.716Z,15.40
2018-05-11T09:02:12.035Z,15.50
2018-05-11T09:07:14.501Z,15.50
2018-05-11T09:12:17.102Z,15.60
2018-05-11T09:17:20.422Z,15.90
2018-05-11T09:22:23.977Z,15.90
2018-05-11T09:27:27.149Z,16.10
2018-05-11T09:32:30.042Z,16.20
2018-05-11T09:37:33.269Z,16.40
2018-05-11T09:42:35.838Z,16.40
2018-05-11T09:47:39.097Z,16.60
2018-05-11T09:52:41.537Z,16.60
2018-05-11T09:57:44.765Z,16.90
2018-05-11T10:02:47.313Z,16.80
2018-05-11T10:07:50.592Z,17.20
2018-05-11T10:12:53.014Z,17.10
2018-05-11T10:17:55.712Z,17.20
2018-05-11T10:22:58.290Z,17.20
2018-05-11T10:28:00.802Z,17.30
2018-05-11T10:33:03.243Z,17.40
2018-05-11T10:38:05.700Z,17.60
2018-05-11T10:43:08.641Z,17.80
2018-05-11T10:48:11.122Z,17.90
2018-05-11T10:53:13.656Z,18.10
2018-05-11T10:58:16.101Z,18.30
2018-05-11T11:03:21.671Z,18.50
2018-05-11T11:08:24.913Z,18.40
2018-05-11T11:13:27.382Z,18.40
2018-05-11T11:18:30.592Z,18.20
2018-05-11T11:23:33.039Z,18.20
2018-05-11T11:28:36.307Z,18.40
2018-05-11T11:33:38.757Z,18.30
2018-05-11T11:38:41.982Z,18.80
2018-05-11T11:43:45.304Z,18.80
2018-05-11T11:48:48.509Z,18.70
2018-05-11T11:53:51.720Z,18.60
2018-05-11T11:58:55.097Z,18.60
2018-05-11T12:03:58.433Z,18.60
2018-05-11T12:09:01.960Z,18.50
2018-05-11T12:14:04.292Z,18.50
2018-05-11T12:19:06.758Z,18.60
2018-05-11T12:24:09.216Z,18.70
2018-05-11T12:29:12.638Z,18.60
2018-05-11T12:39:25.661Z,18.50
2018-05-11T12:44:28.110Z,18.50
2018-05-11T12:49:31.322Z,18.70
2018-05-11T12:54:34.558Z,18.80
2018-05-11T12:59:36.989Z,18.70
2018-05-11T13:04:39.437Z,18.90
2018-05-11T13:09:41.878Z,19.00
2018-05-11T13:14:44.322Z,19.00
2018-05-11T13:19:46.776Z,19.00
2018-05-11T13:24:49.217Z,19.10
2018-05-11T13:29:52.828Z,19.20
2018-05-11T13:34:55.430Z,19.20
2018-05-11T13:39:57.861Z,19.30
2018-05-11T13:45:00.310Z,19.50
2018-05-11T13:50:02.797Z,19.70
2018-05-11T13:55:05.267Z,19.80
2018-05-11T14:00:07.708Z,19.90
2018-05-11T14:05:10.157Z,20.10
2018-05-11T14:10:21.859Z,20.30
2018-05-11T14:15:24.288Z,20.20
2018-05-11T14:20:26.739Z,20.30
2018-05-11T14:25:29.957Z,20.20
2018-05-11T14:30:33.190Z,20.10
2018-05-11T14:35:35.681Z,20.00
2018-05-11T14:40:38.219Z,19.90
2018-05-11T14:45:40.658Z,20.00
2018-05-11T14:50:43.881Z,20.20
2018-05-11T14:55:46.313Z,20.20
2018-05-11T15:00:48.943Z,20.20
2018-05-11T15:05:51.449Z,20.00
2018-05-11T15:10:54.653Z,20.20
2018-05-11T15:15:57.938Z,20.40
2018-05-11T15:21:00.399Z,20.30
2018-05-11T15:26:02.854Z,20.50
2018-05-11T15:31:06.097Z,20.80
2018-05-11T15:36:09.256Z,20.90
2018-05-11T15:41:11.707Z,20.90
2018-05-11T15:46:14.175Z,20.90
2018-05-11T15:51:16.673Z,20.80
2018-05-11T15:56:19.257Z,20.80
2018-05-11T16:01:21.707Z,20.70
2018-05-11T16:06:24.913Z,20.70
2018-05-11T16:11:27.359Z,20.60
2018-05-11T16:16:43.787Z,20.70
2018-05-11T16:21:46.233Z,20.70
2018-05-11T16:26:48.697Z,20.70
2018-05-11T16:31:51.143Z,20.70
2018-05-11T16:42:26.214Z,20.80
2018-05-11T16:47:28.677Z,20.70
2018-05-11T16:52:31.118Z,20.50
2018-05-11T16:57:33.574Z,20.30
2018-05-11T17:02:36.010Z,20.20
2018-05-11T17:07:38.462Z,20.20
2018-05-11T17:12:41.678Z,19.90
2018-05-11T17:17:45.668Z,19.90
2018-05-11T17:22:48.233Z,19.80
2018-05-11T17:27:50.577Z,19.60
2018-05-11T17:32:53.018Z,19.60
2018-05-11T17:37:55.471Z,19.50
2018-05-11T17:42:57.915Z,19.40
2018-05-11T17:48:00.353Z,19.30
2018-05-11T17:53:02.806Z,19.20
2018-05-11T17:58:05.258Z,19.10
2018-05-11T18:03:08.476Z,18.90
2018-05-11T18:08:11.781Z,18.80
2018-05-11T18:13:14.200Z,18.80
2018-05-11T18:18:16.658Z,18.80
2018-05-11T18:23:21.466Z,18.60
2018-05-11T18:28:24.073Z,18.60
2018-05-11T18:33:28.118Z,18.40
2018-05-11T18:38:32.068Z,18.30
2018-05-11T18:43:35.286Z,18.30
2018-05-11T18:48:37.733Z,18.20
2018-05-11T18:53:40.553Z,18.20
2018-05-11T18:58:42.657Z,18.00
2018-05-11T19:03:45.874Z,17.90
2018-05-11T19:08:48.330Z,17.90
2018-05-11T19:13:50.764Z,17.80
2018-05-11T19:18:53.252Z,17.70
2018-05-11T19:29:23.957Z,17.50
2018-05-11T19:34:26.386Z,17.50
2018-05-11T19:39:28.938Z,17.40
2018-05-11T19:44:31.704Z,17.30
2018-05-11T19:49:34.314Z,17.20
2018-05-11T19:54:38.411Z,17.20
2018-05-11T19:59:40.866Z,17.10
2018-05-11T20:04:43.342Z,17.00
2018-05-11T20:09:45.760Z,17.00
2018-05-11T20:14:48.204Z,16.90
2018-05-11T20:19:51.670Z,16.80
2018-05-11T20:30:01.893Z,16.70
2018-05-11T20:35:04.342Z,16.70
2018-05-11T20:40:07.573Z,16.40
2018-05-11T20:45:10.019Z,16.40
2018-05-11T20:50:30.726Z,16.40
2018-05-11T20:55:33.166Z,16.30
2018-05-11T21:00:56.422Z,16.30
2018-05-11T21:05:59.638Z,16.20
2018-05-11T21:11:02.852Z,16.20
2018-05-11T21:16:06.144Z,16.20
2018-05-11T21:21:08.633Z,16.10
2018-05-11T21:26:11.088Z,16.10
2018-05-11T21:31:13.530Z,16.10
2018-05-11T21:36:16.745Z,15.90
2018-05-11T21:41:19.955Z,15.90
2018-05-11T21:46:23.346Z,15.90
2018-05-11T21:51:25.778Z,15.80
2018-05-11T21:56:28.333Z,15.90
2018-05-11T22:01:30.765Z,15.90
2018-05-11T22:06:33.219Z,15.90
2018-05-11T22:11:35.662Z,15.90
2018-05-11T22:16:38.116Z,16.00
2018-05-11T22:21:41.330Z,16.00
2018-05-11T22:26:44.557Z,16.00
2018-05-11T22:31:47.006Z,16.00
2018-05-11T22:36:49.462Z,16.10
2018-05-11T22:41:51.937Z,16.10
2018-05-11T22:46:54.583Z,16.10
2018-05-11T22:51:57.017Z,16.10
2018-05-11T22:56:59.467Z,16.10
2018-05-11T23:02:02.458Z,16.10
2018-05-11T23:07:04.915Z,16.10
2018-05-11T23:12:08.161Z,16.10
2018-05-11T23:17:31.478Z,16.10
2018-05-11T23:22:35.458Z,16.20
2018-05-11T23:27:38.035Z,16.10
2018-05-11T23:32:56.698Z,16.20
2018-05-11T23:37:59.137Z,16.20
2018-05-11T23:43:01.618Z,16.20
2018-05-11T23:48:04.063Z,16.10
2018-05-11T23:53:07.392Z,16.10
2018-05-11T23:58:09.850Z,16.00
